sensor_id;sensor_type;location;lat;lon;timestamp;P1;durP1;ratioP1;P2;durP2;ratioP2
21492;SDS011;10908;50.690;4.400;2023-11-22T00:00:10;36.42;;;19.40;;
21492;SDS011;10908;50.690;4.400;2023-11-22T00:02:37;34.83;;;18.08;;
21492;SDS011;10908;50.690;4.400;2023-11-22T00:05:03;37.95;;;18.17;;
21492;SDS011;10908;50.690;4.400;2023-11-22T00:07:30;32.20;;;17.45;;
21492;SDS011;10908;50.690;4.400;2023-11-22T00:09:56;34.65;;;17.90;;
21492;SDS011;10908;50.690;4.400;2023-11-22T00:12:23;37.53;;;18.90;;
21492;SDS011;10908;50.690;4.400;2023-11-22T00:14:49;37.20;;;18.45;;
21492;SDS011;10908;50.690;4.400;2023-11-22T00:17:16;35.40;;;18.30;;
21492;SDS011;10908;50.690;4.400;2023-11-22T00:19:44;35.72;;;18.95;;
21492;SDS011;10908;50.690;4.400;2023-11-22T00:22:11;36.83;;;18.67;;
21492;SDS011;10908;50.690;4.400;2023-11-22T00:24:39;37.17;;;18.08;;
21492;SDS011;10908;50.690;4.400;2023-11-22T00:27:06;36.13;;;19.10;;
21492;SDS011;10908;50.690;4.400;2023-11-22T00:29:32;34.70;;;18.23;;
21492;SDS011;10908;50.690;4.400;2023-11-22T00:31:57;36.55;;;19.30;;
21492;SDS011;10908;50.690;4.400;2023-11-22T00:34:24;37.80;;;19.02;;
21492;SDS011;10908;50.690;4.400;2023-11-22T00:36:49;33.08;;;17.92;;
21492;SDS011;10908;50.690;4.400;2023-11-22T00:39:16;34.00;;;18.48;;
21492;SDS011;10908;50.690;4.400;2023-11-22T00:41:42;36.33;;;18.90;;
21492;SDS011;10908;50.690;4.400;2023-11-22T00:44:09;37.03;;;19.10;;
21492;SDS011;10908;50.690;4.400;2023-11-22T00:46:35;35.55;;;18.15;;
21492;SDS011;10908;50.690;4.400;2023-11-22T00:49:02;36.63;;;18.23;;
21492;SDS011;10908;50.690;4.400;2023-11-22T00:51:29;33.20;;;17.42;;
21492;SDS011;10908;50.690;4.400;2023-11-22T00:53:56;32.58;;;17.98;;
21492;SDS011;10908;50.690;4.400;2023-11-22T00:56:25;31.73;;;17.60;;
21492;SDS011;10908;50.690;4.400;2023-11-22T00:58:51;34.60;;;17.73;;
21492;SDS011;10908;50.690;4.400;2023-11-22T01:01:21;33.08;;;17.08;;
21492;SDS011;10908;50.690;4.400;2023-11-22T01:03:47;33.67;;;17.58;;
21492;SDS011;10908;50.690;4.400;2023-11-22T01:06:12;34.28;;;17.65;;
21492;SDS011;10908;50.690;4.400;2023-11-22T01:08:39;34.95;;;18.40;;
21492;SDS011;10908;50.690;4.400;2023-11-22T01:11:05;33.38;;;17.92;;
21492;SDS011;10908;50.690;4.400;2023-11-22T01:13:33;35.63;;;18.08;;
21492;SDS011;10908;50.690;4.400;2023-11-22T01:16:05;36.30;;;18.90;;
21492;SDS011;10908;50.690;4.400;2023-11-22T01:18:35;36.25;;;18.58;;
21492;SDS011;10908;50.690;4.400;2023-11-22T01:21:01;39.22;;;18.55;;
21492;SDS011;10908;50.690;4.400;2023-11-22T01:23:26;34.33;;;17.40;;
21492;SDS011;10908;50.690;4.400;2023-11-22T01:25:55;41.45;;;19.02;;
21492;SDS011;10908;50.690;4.400;2023-11-22T01:28:20;36.65;;;18.35;;
21492;SDS011;10908;50.690;4.400;2023-11-22T01:30:46;37.50;;;17.77;;
21492;SDS011;10908;50.690;4.400;2023-11-22T01:33:12;35.92;;;18.05;;
21492;SDS011;10908;50.690;4.400;2023-11-22T01:35:38;38.75;;;18.23;;
21492;SDS011;10908;50.690;4.400;2023-11-22T01:38:04;36.13;;;18.33;;
21492;SDS011;10908;50.690;4.400;2023-11-22T01:40:30;32.80;;;17.00;;
21492;SDS011;10908;50.690;4.400;2023-11-22T01:42:56;37.22;;;17.38;;
21492;SDS011;10908;50.690;4.400;2023-11-22T01:45:27;35.33;;;17.88;;
21492;SDS011;10908;50.690;4.400;2023-11-22T01:47:53;35.42;;;19.05;;
21492;SDS011;10908;50.690;4.400;2023-11-22T01:50:20;37.30;;;18.10;;
21492;SDS011;10908;50.690;4.400;2023-11-22T01:52:46;35.80;;;17.85;;
21492;SDS011;10908;50.690;4.400;2023-11-22T01:55:12;32.47;;;17.15;;
21492;SDS011;10908;50.690;4.400;2023-11-22T01:57:41;33.95;;;17.95;;
21492;SDS011;10908;50.690;4.400;2023-11-22T02:00:06;34.58;;;17.10;;
21492;SDS011;10908;50.690;4.400;2023-11-22T02:02:33;34.28;;;17.13;;
21492;SDS011;10908;50.690;4.400;2023-11-22T02:04:59;34.20;;;17.55;;
21492;SDS011;10908;50.690;4.400;2023-11-22T02:07:28;35.75;;;17.25;;
21492;SDS011;10908;50.690;4.400;2023-11-22T02:09:54;37.05;;;17.98;;
21492;SDS011;10908;50.690;4.400;2023-11-22T02:12:21;33.47;;;16.85;;
21492;SDS011;10908;50.690;4.400;2023-11-22T02:14:46;34.42;;;17.35;;
21492;SDS011;10908;50.690;4.400;2023-11-22T02:17:12;31.30;;;16.33;;
21492;SDS011;10908;50.690;4.400;2023-11-22T02:19:38;31.48;;;16.35;;
21492;SDS011;10908;50.690;4.400;2023-11-22T02:22:04;33.08;;;17.00;;
21492;SDS011;10908;50.690;4.400;2023-11-22T02:24:29;35.70;;;16.48;;
21492;SDS011;10908;50.690;4.400;2023-11-22T02:26:55;33.67;;;16.80;;
21492;SDS011;10908;50.690;4.400;2023-11-22T02:29:20;31.52;;;16.58;;
21492;SDS011;10908;50.690;4.400;2023-11-22T02:31:47;35.20;;;16.30;;
21492;SDS011;10908;50.690;4.400;2023-11-22T02:34:13;31.08;;;15.52;;
21492;SDS011;10908;50.690;4.400;2023-11-22T02:36:41;29.25;;;15.65;;
21492;SDS011;10908;50.690;4.400;2023-11-22T02:39:08;32.97;;;16.27;;
21492;SDS011;10908;50.690;4.400;2023-11-22T02:41:34;31.52;;;15.65;;
21492;SDS011;10908;50.690;4.400;2023-11-22T02:44:00;32.38;;;16.20;;
21492;SDS011;10908;50.690;4.400;2023-11-22T02:46:26;32.17;;;15.90;;
21492;SDS011;10908;50.690;4.400;2023-11-22T02:48:51;32.60;;;16.15;;
21492;SDS011;10908;50.690;4.400;2023-11-22T02:51:19;31.38;;;16.10;;
21492;SDS011;10908;50.690;4.400;2023-11-22T02:53:46;33.03;;;16.00;;
21492;SDS011;10908;50.690;4.400;2023-11-22T02:56:13;34.47;;;16.17;;
21492;SDS011;10908;50.690;4.400;2023-11-22T02:58:40;33.38;;;16.27;;
21492;SDS011;10908;50.690;4.400;2023-11-22T03:01:06;35.67;;;16.17;;
21492;SDS011;10908;50.690;4.400;2023-11-22T03:03:32;36.03;;;17.00;;
21492;SDS011;10908;50.690;4.400;2023-11-22T03:05:58;35.97;;;17.50;;
21492;SDS011;10908;50.690;4.400;2023-11-22T03:08:24;35.22;;;17.27;;
21492;SDS011;10908;50.690;4.400;2023-11-22T03:10:49;31.50;;;16.33;;
21492;SDS011;10908;50.690;4.400;2023-11-22T03:13:16;37.45;;;17.27;;
21492;SDS011;10908;50.690;4.400;2023-11-22T03:15:42;31.63;;;16.30;;
21492;SDS011;10908;50.690;4.400;2023-11-22T03:18:08;32.38;;;16.25;;
21492;SDS011;10908;50.690;4.400;2023-11-22T03:20:33;34.58;;;17.27;;
21492;SDS011;10908;50.690;4.400;2023-11-22T03:22:59;37.40;;;18.08;;
21492;SDS011;10908;50.690;4.400;2023-11-22T03:25:25;36.38;;;17.10;;
21492;SDS011;10908;50.690;4.400;2023-11-22T03:27:51;32.30;;;16.52;;
21492;SDS011;10908;50.690;4.400;2023-11-22T03:30:17;33.25;;;16.05;;
21492;SDS011;10908;50.690;4.400;2023-11-22T03:32:42;33.17;;;17.45;;
21492;SDS011;10908;50.690;4.400;2023-11-22T03:35:09;35.30;;;16.67;;
21492;SDS011;10908;50.690;4.400;2023-11-22T03:37:35;32.55;;;15.70;;
21492;SDS011;10908;50.690;4.400;2023-11-22T03:40:01;32.83;;;16.73;;
21492;SDS011;10908;50.690;4.400;2023-11-22T03:42:27;34.30;;;16.90;;
21492;SDS011;10908;50.690;4.400;2023-11-22T03:44:53;34.13;;;16.15;;
21492;SDS011;10908;50.690;4.400;2023-11-22T03:47:19;31.02;;;15.95;;
21492;SDS011;10908;50.690;4.400;2023-11-22T03:49:44;31.80;;;15.82;;
21492;SDS011;10908;50.690;4.400;2023-11-22T03:52:10;34.28;;;16.40;;
21492;SDS011;10908;50.690;4.400;2023-11-22T03:54:36;36.20;;;16.15;;
21492;SDS011;10908;50.690;4.400;2023-11-22T03:57:03;35.22;;;16.70;;
21492;SDS011;10908;50.690;4.400;2023-11-22T03:59:29;35.35;;;17.30;;
21492;SDS011;10908;50.690;4.400;2023-11-22T04:01:55;34.60;;;16.75;;
21492;SDS011;10908;50.690;4.400;2023-11-22T04:04:21;33.15;;;16.42;;
21492;SDS011;10908;50.690;4.400;2023-11-22T04:06:46;29.98;;;15.65;;
21492;SDS011;10908;50.690;4.400;2023-11-22T04:09:12;32.38;;;15.88;;
21492;SDS011;10908;50.690;4.400;2023-11-22T04:11:38;32.45;;;16.27;;
21492;SDS011;10908;50.690;4.400;2023-11-22T04:14:04;35.15;;;16.45;;
21492;SDS011;10908;50.690;4.400;2023-11-22T04:16:30;32.25;;;15.15;;
21492;SDS011;10908;50.690;4.400;2023-11-22T04:18:56;33.25;;;17.17;;
21492;SDS011;10908;50.690;4.400;2023-11-22T04:21:22;33.53;;;16.38;;
21492;SDS011;10908;50.690;4.400;2023-11-22T04:23:49;30.10;;;15.43;;
21492;SDS011;10908;50.690;4.400;2023-11-22T04:26:14;30.35;;;15.52;;
21492;SDS011;10908;50.690;4.400;2023-11-22T04:28:41;30.85;;;14.90;;
21492;SDS011;10908;50.690;4.400;2023-11-22T04:31:07;32.78;;;16.20;;
21492;SDS011;10908;50.690;4.400;2023-11-22T04:33:35;33.63;;;16.92;;
21492;SDS011;10908;50.690;4.400;2023-11-22T04:36:01;28.92;;;14.50;;
21492;SDS011;10908;50.690;4.400;2023-11-22T04:38:27;29.85;;;15.77;;
21492;SDS011;10908;50.690;4.400;2023-11-22T04:40:52;31.40;;;16.02;;
21492;SDS011;10908;50.690;4.400;2023-11-22T04:43:18;31.20;;;14.90;;
21492;SDS011;10908;50.690;4.400;2023-11-22T04:45:44;31.38;;;15.95;;
21492;SDS011;10908;50.690;4.400;2023-11-22T04:48:10;30.98;;;15.77;;
21492;SDS011;10908;50.690;4.400;2023-11-22T04:50:36;30.90;;;15.45;;
21492;SDS011;10908;50.690;4.400;2023-11-22T04:53:01;28.02;;;14.75;;
21492;SDS011;10908;50.690;4.400;2023-11-22T04:55:27;32.28;;;15.45;;
21492;SDS011;10908;50.690;4.400;2023-11-22T04:57:53;27.60;;;15.00;;
21492;SDS011;10908;50.690;4.400;2023-11-22T05:00:19;30.25;;;15.82;;
21492;SDS011;10908;50.690;4.400;2023-11-22T05:02:47;27.58;;;14.85;;
21492;SDS011;10908;50.690;4.400;2023-11-22T05:05:13;28.17;;;14.95;;
21492;SDS011;10908;50.690;4.400;2023-11-22T05:07:39;28.63;;;14.85;;
21492;SDS011;10908;50.690;4.400;2023-11-22T05:10:05;29.60;;;14.63;;
21492;SDS011;10908;50.690;4.400;2023-11-22T05:12:34;32.25;;;15.35;;
21492;SDS011;10908;50.690;4.400;2023-11-22T05:14:59;28.33;;;14.82;;
21492;SDS011;10908;50.690;4.400;2023-11-22T05:17:26;28.02;;;14.10;;
21492;SDS011;10908;50.690;4.400;2023-11-22T05:19:51;27.77;;;14.48;;
21492;SDS011;10908;50.690;4.400;2023-11-22T05:22:17;27.90;;;14.40;;
21492;SDS011;10908;50.690;4.400;2023-11-22T05:24:43;26.70;;;14.60;;
21492;SDS011;10908;50.690;4.400;2023-11-22T05:27:09;27.60;;;14.52;;
21492;SDS011;10908;50.690;4.400;2023-11-22T05:29:35;30.50;;;15.18;;
21492;SDS011;10908;50.690;4.400;2023-11-22T05:32:01;29.50;;;15.35;;
21492;SDS011;10908;50.690;4.400;2023-11-22T05:34:28;28.65;;;14.68;;
21492;SDS011;10908;50.690;4.400;2023-11-22T05:36:54;26.83;;;14.65;;
21492;SDS011;10908;50.690;4.400;2023-11-22T05:39:19;26.65;;;14.35;;
21492;SDS011;10908;50.690;4.400;2023-11-22T05:41:47;27.45;;;14.23;;
21492;SDS011;10908;50.690;4.400;2023-11-22T05:44:13;28.52;;;14.43;;
21492;SDS011;10908;50.690;4.400;2023-11-22T05:46:39;30.02;;;14.70;;
21492;SDS011;10908;50.690;4.400;2023-11-22T05:49:05;29.65;;;15.18;;
21492;SDS011;10908;50.690;4.400;2023-11-22T05:51:30;30.55;;;15.93;;
21492;SDS011;10908;50.690;4.400;2023-11-22T05:53:56;31.17;;;16.02;;
21492;SDS011;10908;50.690;4.400;2023-11-22T05:56:22;31.58;;;15.68;;
21492;SDS011;10908;50.690;4.400;2023-11-22T05:58:47;30.02;;;15.15;;
21492;SDS011;10908;50.690;4.400;2023-11-22T06:01:13;31.58;;;16.08;;
21492;SDS011;10908;50.690;4.400;2023-11-22T06:03:39;31.85;;;15.60;;
21492;SDS011;10908;50.690;4.400;2023-11-22T06:06:05;32.50;;;16.58;;
21492;SDS011;10908;50.690;4.400;2023-11-22T06:08:31;30.45;;;15.27;;
21492;SDS011;10908;50.690;4.400;2023-11-22T06:10:57;30.55;;;14.85;;
21492;SDS011;10908;50.690;4.400;2023-11-22T06:13:24;30.45;;;15.48;;
21492;SDS011;10908;50.690;4.400;2023-11-22T06:15:50;30.65;;;15.30;;
21492;SDS011;10908;50.690;4.400;2023-11-22T06:18:16;32.45;;;15.20;;
21492;SDS011;10908;50.690;4.400;2023-11-22T06:20:43;27.70;;;14.48;;
21492;SDS011;10908;50.690;4.400;2023-11-22T06:23:09;29.00;;;14.50;;
21492;SDS011;10908;50.690;4.400;2023-11-22T06:25:35;29.30;;;14.38;;
21492;SDS011;10908;50.690;4.400;2023-11-22T06:28:01;28.25;;;14.82;;
21492;SDS011;10908;50.690;4.400;2023-11-22T06:30:27;27.65;;;14.73;;
21492;SDS011;10908;50.690;4.400;2023-11-22T06:32:53;26.98;;;14.27;;
21492;SDS011;10908;50.690;4.400;2023-11-22T06:35:19;30.00;;;15.07;;
21492;SDS011;10908;50.690;4.400;2023-11-22T06:37:44;28.83;;;14.35;;
21492;SDS011;10908;50.690;4.400;2023-11-22T06:40:11;29.23;;;14.80;;
21492;SDS011;10908;50.690;4.400;2023-11-22T06:42:41;31.92;;;15.57;;
21492;SDS011;10908;50.690;4.400;2023-11-22T06:45:09;32.25;;;16.48;;
21492;SDS011;10908;50.690;4.400;2023-11-22T06:47:41;32.47;;;15.07;;
21492;SDS011;10908;50.690;4.400;2023-11-22T06:50:08;32.17;;;16.52;;
21492;SDS011;10908;50.690;4.400;2023-11-22T06:52:37;30.05;;;15.57;;
21492;SDS011;10908;50.690;4.400;2023-11-22T06:55:04;32.40;;;16.02;;
21492;SDS011;10908;50.690;4.400;2023-11-22T06:57:32;32.65;;;15.80;;
21492;SDS011;10908;50.690;4.400;2023-11-22T07:00:01;35.88;;;17.02;;
21492;SDS011;10908;50.690;4.400;2023-11-22T07:02:31;39.55;;;17.40;;
21492;SDS011;10908;50.690;4.400;2023-11-22T07:04:57;36.25;;;16.77;;
21492;SDS011;10908;50.690;4.400;2023-11-22T07:07:24;38.30;;;18.20;;
21492;SDS011;10908;50.690;4.400;2023-11-22T07:09:50;36.72;;;17.70;;
21492;SDS011;10908;50.690;4.400;2023-11-22T07:12:16;38.33;;;17.30;;
21492;SDS011;10908;50.690;4.400;2023-11-22T07:14:41;33.85;;;16.02;;
21492;SDS011;10908;50.690;4.400;2023-11-22T07:17:08;36.33;;;17.00;;
21492;SDS011;10908;50.690;4.400;2023-11-22T07:19:34;36.10;;;17.17;;
21492;SDS011;10908;50.690;4.400;2023-11-22T07:22:03;36.72;;;16.80;;
21492;SDS011;10908;50.690;4.400;2023-11-22T07:24:29;35.10;;;17.48;;
21492;SDS011;10908;50.690;4.400;2023-11-22T07:26:59;33.50;;;17.13;;
21492;SDS011;10908;50.690;4.400;2023-11-22T07:29:26;33.90;;;16.92;;
21492;SDS011;10908;50.690;4.400;2023-11-22T07:31:54;36.25;;;16.55;;
21492;SDS011;10908;50.690;4.400;2023-11-22T07:34:21;34.38;;;16.30;;
21492;SDS011;10908;50.690;4.400;2023-11-22T07:36:47;33.50;;;16.85;;
21492;SDS011;10908;50.690;4.400;2023-11-22T07:39:12;37.00;;;17.33;;
21492;SDS011;10908;50.690;4.400;2023-11-22T07:41:38;33.55;;;16.60;;
21492;SDS011;10908;50.690;4.400;2023-11-22T07:44:03;34.25;;;16.42;;
21492;SDS011;10908;50.690;4.400;2023-11-22T07:46:30;32.47;;;16.52;;
21492;SDS011;10908;50.690;4.400;2023-11-22T07:48:55;32.78;;;17.13;;
21492;SDS011;10908;50.690;4.400;2023-11-22T07:51:22;33.08;;;16.17;;
21492;SDS011;10908;50.690;4.400;2023-11-22T07:53:49;28.58;;;14.52;;
21492;SDS011;10908;50.690;4.400;2023-11-22T07:56:15;30.23;;;15.63;;
21492;SDS011;10908;50.690;4.400;2023-11-22T07:58:40;32.42;;;15.07;;
21492;SDS011;10908;50.690;4.400;2023-11-22T08:01:06;31.38;;;15.27;;
21492;SDS011;10908;50.690;4.400;2023-11-22T08:03:38;32.28;;;16.52;;
21492;SDS011;10908;50.690;4.400;2023-11-22T08:06:10;31.00;;;15.45;;
21492;SDS011;10908;50.690;4.400;2023-11-22T08:08:36;33.88;;;16.35;;
21492;SDS011;10908;50.690;4.400;2023-11-22T08:11:04;29.73;;;15.25;;
21492;SDS011;10908;50.690;4.400;2023-11-22T08:13:39;29.67;;;15.18;;
21492;SDS011;10908;50.690;4.400;2023-11-22T08:16:06;29.85;;;15.10;;
21492;SDS011;10908;50.690;4.400;2023-11-22T08:18:31;30.60;;;15.25;;
21492;SDS011;10908;50.690;4.400;2023-11-22T08:20:57;27.55;;;15.23;;
21492;SDS011;10908;50.690;4.400;2023-11-22T08:23:23;29.33;;;14.75;;
21492;SDS011;10908;50.690;4.400;2023-11-22T08:25:52;34.50;;;15.90;;
21492;SDS011;10908;50.690;4.400;2023-11-22T08:28:18;32.67;;;17.33;;
21492;SDS011;10908;50.690;4.400;2023-11-22T08:30:44;29.83;;;15.43;;
21492;SDS011;10908;50.690;4.400;2023-11-22T08:33:09;32.72;;;17.65;;
21492;SDS011;10908;50.690;4.400;2023-11-22T08:35:35;33.05;;;15.85;;
21492;SDS011;10908;50.690;4.400;2023-11-22T08:38:01;28.60;;;15.18;;
21492;SDS011;10908;50.690;4.400;2023-11-22T08:40:28;30.05;;;15.38;;
21492;SDS011;10908;50.690;4.400;2023-11-22T08:42:55;31.98;;;16.25;;
21492;SDS011;10908;50.690;4.400;2023-11-22T08:45:20;32.58;;;16.75;;
21492;SDS011;10908;50.690;4.400;2023-11-22T08:47:46;27.88;;;14.25;;
21492;SDS011;10908;50.690;4.400;2023-11-22T08:50:12;27.10;;;15.00;;
21492;SDS011;10908;50.690;4.400;2023-11-22T08:52:40;29.17;;;15.35;;
21492;SDS011;10908;50.690;4.400;2023-11-22T08:55:10;25.55;;;13.40;;
21492;SDS011;10908;50.690;4.400;2023-11-22T08:57:36;26.92;;;13.57;;
21492;SDS011;10908;50.690;4.400;2023-11-22T09:00:03;25.85;;;13.60;;
21492;SDS011;10908;50.690;4.400;2023-11-22T09:02:33;27.35;;;13.98;;
21492;SDS011;10908;50.690;4.400;2023-11-22T09:05:01;24.67;;;13.52;;
21492;SDS011;10908;50.690;4.400;2023-11-22T09:07:30;26.42;;;13.07;;
21492;SDS011;10908;50.690;4.400;2023-11-22T09:09:56;24.45;;;13.05;;
21492;SDS011;10908;50.690;4.400;2023-11-22T09:12:23;25.75;;;13.65;;
21492;SDS011;10908;50.690;4.400;2023-11-22T09:14:48;25.10;;;13.20;;
21492;SDS011;10908;50.690;4.400;2023-11-22T09:17:14;26.00;;;13.05;;
21492;SDS011;10908;50.690;4.400;2023-11-22T09:19:40;25.52;;;13.60;;
21492;SDS011;10908;50.690;4.400;2023-11-22T09:22:05;24.60;;;13.23;;
21492;SDS011;10908;50.690;4.400;2023-11-22T09:24:31;23.05;;;12.70;;
21492;SDS011;10908;50.690;4.400;2023-11-22T09:26:58;23.95;;;12.70;;
21492;SDS011;10908;50.690;4.400;2023-11-22T09:29:25;24.55;;;12.25;;
21492;SDS011;10908;50.690;4.400;2023-11-22T09:31:51;24.83;;;13.90;;
21492;SDS011;10908;50.690;4.400;2023-11-22T09:34:17;24.95;;;12.32;;
21492;SDS011;10908;50.690;4.400;2023-11-22T09:36:43;22.25;;;12.25;;
21492;SDS011;10908;50.690;4.400;2023-11-22T09:39:09;24.45;;;13.15;;
21492;SDS011;10908;50.690;4.400;2023-11-22T09:41:35;22.95;;;12.27;;
21492;SDS011;10908;50.690;4.400;2023-11-22T09:44:01;24.25;;;12.20;;
21492;SDS011;10908;50.690;4.400;2023-11-22T09:46:27;24.02;;;12.20;;
21492;SDS011;10908;50.690;4.400;2023-11-22T09:48:55;23.25;;;12.63;;
21492;SDS011;10908;50.690;4.400;2023-11-22T09:51:28;25.20;;;13.60;;
21492;SDS011;10908;50.690;4.400;2023-11-22T09:53:56;22.23;;;12.45;;
21492;SDS011;10908;50.690;4.400;2023-11-22T09:56:29;24.85;;;12.95;;
21492;SDS011;10908;50.690;4.400;2023-11-22T09:58:57;25.30;;;12.90;;
21492;SDS011;10908;50.690;4.400;2023-11-22T10:01:25;23.08;;;13.27;;
21492;SDS011;10908;50.690;4.400;2023-11-22T10:04:02;22.15;;;12.52;;
21492;SDS011;10908;50.690;4.400;2023-11-22T10:06:30;24.77;;;13.45;;
21492;SDS011;10908;50.690;4.400;2023-11-22T10:09:01;28.10;;;14.00;;
21492;SDS011;10908;50.690;4.400;2023-11-22T10:11:32;24.33;;;13.05;;
21492;SDS011;10908;50.690;4.400;2023-11-22T10:13:58;24.85;;;13.13;;
21492;SDS011;10908;50.690;4.400;2023-11-22T10:16:24;24.15;;;12.88;;
21492;SDS011;10908;50.690;4.400;2023-11-22T10:18:49;26.67;;;13.93;;
21492;SDS011;10908;50.690;4.400;2023-11-22T10:21:26;23.38;;;12.68;;
21492;SDS011;10908;50.690;4.400;2023-11-22T10:23:56;23.15;;;12.65;;
21492;SDS011;10908;50.690;4.400;2023-11-22T10:26:25;25.77;;;13.35;;
21492;SDS011;10908;50.690;4.400;2023-11-22T10:28:53;24.30;;;12.73;;
21492;SDS011;10908;50.690;4.400;2023-11-22T10:31:20;26.35;;;13.75;;
21492;SDS011;10908;50.690;4.400;2023-11-22T10:33:46;23.70;;;12.65;;
21492;SDS011;10908;50.690;4.400;2023-11-22T10:36:13;22.98;;;12.98;;
21492;SDS011;10908;50.690;4.400;2023-11-22T10:38:40;22.63;;;12.50;;
21492;SDS011;10908;50.690;4.400;2023-11-22T10:41:09;21.80;;;12.10;;
21492;SDS011;10908;50.690;4.400;2023-11-22T10:43:35;23.83;;;11.75;;
21492;SDS011;10908;50.690;4.400;2023-11-22T10:46:03;24.92;;;12.38;;
21492;SDS011;10908;50.690;4.400;2023-11-22T10:48:32;20.92;;;11.68;;
21492;SDS011;10908;50.690;4.400;2023-11-22T10:51:01;20.42;;;11.18;;
21492;SDS011;10908;50.690;4.400;2023-11-22T10:53:32;21.35;;;11.73;;
21492;SDS011;10908;50.690;4.400;2023-11-22T10:56:04;19.83;;;11.15;;
21492;SDS011;10908;50.690;4.400;2023-11-22T10:58:40;20.70;;;11.45;;
21492;SDS011;10908;50.690;4.400;2023-11-22T11:01:11;21.38;;;11.63;;
21492;SDS011;10908;50.690;4.400;2023-11-22T11:03:37;21.27;;;12.25;;
21492;SDS011;10908;50.690;4.400;2023-11-22T11:06:07;20.40;;;11.95;;
21492;SDS011;10908;50.690;4.400;2023-11-22T11:08:38;21.40;;;12.10;;
21492;SDS011;10908;50.690;4.400;2023-11-22T11:11:04;24.85;;;12.40;;
21492;SDS011;10908;50.690;4.400;2023-11-22T11:13:31;22.15;;;11.18;;
21492;SDS011;10908;50.690;4.400;2023-11-22T11:15:57;20.58;;;11.35;;
21492;SDS011;10908;50.690;4.400;2023-11-22T11:18:24;23.02;;;12.13;;
21492;SDS011;10908;50.690;4.400;2023-11-22T11:20:56;21.00;;;11.15;;
21492;SDS011;10908;50.690;4.400;2023-11-22T11:23:26;19.13;;;11.18;;
21492;SDS011;10908;50.690;4.400;2023-11-22T11:25:54;22.75;;;11.68;;
21492;SDS011;10908;50.690;4.400;2023-11-22T11:28:26;19.55;;;11.05;;
21492;SDS011;10908;50.690;4.400;2023-11-22T11:31:06;21.73;;;11.27;;
21492;SDS011;10908;50.690;4.400;2023-11-22T11:33:32;20.67;;;10.95;;
21492;SDS011;10908;50.690;4.400;2023-11-22T11:36:00;20.48;;;10.82;;
21492;SDS011;10908;50.690;4.400;2023-11-22T11:38:32;20.23;;;10.88;;
21492;SDS011;10908;50.690;4.400;2023-11-22T11:41:06;20.58;;;10.50;;
21492;SDS011;10908;50.690;4.400;2023-11-22T11:43:45;19.23;;;10.10;;
21492;SDS011;10908;50.690;4.400;2023-11-22T11:46:12;17.67;;;9.93;;
21492;SDS011;10908;50.690;4.400;2023-11-22T11:48:44;17.73;;;9.35;;
21492;SDS011;10908;50.690;4.400;2023-11-22T11:51:16;19.58;;;10.70;;
21492;SDS011;10908;50.690;4.400;2023-11-22T11:53:42;19.15;;;10.88;;
21492;SDS011;10908;50.690;4.400;2023-11-22T11:56:09;22.13;;;11.80;;
21492;SDS011;10908;50.690;4.400;2023-11-22T11:58:35;21.92;;;11.50;;
21492;SDS011;10908;50.690;4.400;2023-11-22T12:01:01;19.25;;;10.73;;
21492;SDS011;10908;50.690;4.400;2023-11-22T12:03:27;20.38;;;11.15;;
21492;SDS011;10908;50.690;4.400;2023-11-22T12:05:54;20.35;;;10.60;;
21492;SDS011;10908;50.690;4.400;2023-11-22T12:08:19;20.52;;;11.23;;
21492;SDS011;10908;50.690;4.400;2023-11-22T12:10:45;18.73;;;10.40;;
21492;SDS011;10908;50.690;4.400;2023-11-22T12:13:20;19.10;;;10.65;;
21492;SDS011;10908;50.690;4.400;2023-11-22T12:15:49;19.05;;;9.98;;
21492;SDS011;10908;50.690;4.400;2023-11-22T12:18:16;18.52;;;9.82;;
21492;SDS011;10908;50.690;4.400;2023-11-22T12:20:42;18.75;;;10.23;;
21492;SDS011;10908;50.690;4.400;2023-11-22T12:23:26;20.73;;;11.35;;
21492;SDS011;10908;50.690;4.400;2023-11-22T12:25:58;19.58;;;10.60;;
21492;SDS011;10908;50.690;4.400;2023-11-22T12:28:27;19.88;;;11.02;;
21492;SDS011;10908;50.690;4.400;2023-11-22T12:30:54;19.98;;;11.32;;
21492;SDS011;10908;50.690;4.400;2023-11-22T12:33:19;20.40;;;10.60;;
21492;SDS011;10908;50.690;4.400;2023-11-22T12:35:46;17.02;;;9.98;;
21492;SDS011;10908;50.690;4.400;2023-11-22T12:38:12;20.17;;;10.23;;
21492;SDS011;10908;50.690;4.400;2023-11-22T12:40:38;17.88;;;9.80;;
21492;SDS011;10908;50.690;4.400;2023-11-22T12:43:09;17.60;;;9.60;;
21492;SDS011;10908;50.690;4.400;2023-11-22T12:45:39;19.85;;;9.90;;
21492;SDS011;10908;50.690;4.400;2023-11-22T12:48:24;17.77;;;10.07;;
21492;SDS011;10908;50.690;4.400;2023-11-22T12:50:51;19.15;;;10.50;;
21492;SDS011;10908;50.690;4.400;2023-11-22T12:53:17;19.67;;;10.43;;
21492;SDS011;10908;50.690;4.400;2023-11-22T12:55:47;19.95;;;10.98;;
21492;SDS011;10908;50.690;4.400;2023-11-22T12:58:14;18.00;;;9.70;;
21492;SDS011;10908;50.690;4.400;2023-11-22T13:00:41;21.42;;;10.55;;
21492;SDS011;10908;50.690;4.400;2023-11-22T13:03:08;18.63;;;10.70;;
21492;SDS011;10908;50.690;4.400;2023-11-22T13:05:44;20.42;;;10.23;;
21492;SDS011;10908;50.690;4.400;2023-11-22T13:08:11;18.52;;;10.02;;
21492;SDS011;10908;50.690;4.400;2023-11-22T13:10:47;19.25;;;9.98;;
21492;SDS011;10908;50.690;4.400;2023-11-22T13:13:26;18.90;;;8.95;;
21492;SDS011;10908;50.690;4.400;2023-11-22T13:15:52;18.42;;;9.70;;
21492;SDS011;10908;50.690;4.400;2023-11-22T13:18:18;18.42;;;9.45;;
21492;SDS011;10908;50.690;4.400;2023-11-22T13:20:44;17.98;;;9.55;;
21492;SDS011;10908;50.690;4.400;2023-11-22T13:23:10;18.60;;;9.35;;
21492;SDS011;10908;50.690;4.400;2023-11-22T13:25:37;17.15;;;8.85;;
21492;SDS011;10908;50.690;4.400;2023-11-22T13:28:03;16.23;;;8.57;;
21492;SDS011;10908;50.690;4.400;2023-11-22T13:30:30;16.95;;;8.68;;
21492;SDS011;10908;50.690;4.400;2023-11-22T13:32:56;16.65;;;9.38;;
21492;SDS011;10908;50.690;4.400;2023-11-22T13:35:22;18.85;;;9.30;;
21492;SDS011;10908;50.690;4.400;2023-11-22T13:37:49;17.25;;;9.50;;
21492;SDS011;10908;50.690;4.400;2023-11-22T13:40:15;17.90;;;9.95;;
21492;SDS011;10908;50.690;4.400;2023-11-22T13:42:42;21.75;;;10.60;;
21492;SDS011;10908;50.690;4.400;2023-11-22T13:45:09;21.88;;;9.90;;
21492;SDS011;10908;50.690;4.400;2023-11-22T13:47:44;22.00;;;11.23;;
21492;SDS011;10908;50.690;4.400;2023-11-22T13:50:11;19.42;;;10.95;;
21492;SDS011;10908;50.690;4.400;2023-11-22T13:52:47;19.92;;;11.23;;
21492;SDS011;10908;50.690;4.400;2023-11-22T13:55:16;21.30;;;11.00;;
21492;SDS011;10908;50.690;4.400;2023-11-22T13:57:44;19.52;;;11.13;;
21492;SDS011;10908;50.690;4.400;2023-11-22T14:00:10;20.73;;;11.55;;
21492;SDS011;10908;50.690;4.400;2023-11-22T14:02:38;21.48;;;12.20;;
21492;SDS011;10908;50.690;4.400;2023-11-22T14:05:05;20.05;;;11.52;;
21492;SDS011;10908;50.690;4.400;2023-11-22T14:07:33;20.20;;;11.45;;
21492;SDS011;10908;50.690;4.400;2023-11-22T14:09:59;22.13;;;11.50;;
21492;SDS011;10908;50.690;4.400;2023-11-22T14:12:28;23.58;;;11.82;;
21492;SDS011;10908;50.690;4.400;2023-11-22T14:14:54;19.70;;;11.63;;
21492;SDS011;10908;50.690;4.400;2023-11-22T14:17:19;23.05;;;12.15;;
21492;SDS011;10908;50.690;4.400;2023-11-22T14:19:46;22.73;;;12.45;;
21492;SDS011;10908;50.690;4.400;2023-11-22T14:22:12;19.95;;;10.82;;